Главная страница
METAR-TAF:

METAR-TAF

Аэропорты :

Берлин-Тегель

Берлин, Германия

широта: 52-34N, долгота: 013-19E, высота над уровнем моря: 37 м

Текущие метеонаблюдения

Эта сводка был подготовлена 15 минут назад, в 13:20 UTC
Ветер 11 Узел от западный-юго-западный
Температура 22°C
Влажность 60%
Давление 1010 hPa
Видимость 10 км и более
небольшая облачность на высоте 4300 фута
Рассеянная облачность на высоте 7000 фута

METAR: EDDT 141320Z 24011KT 9999 FEW043 BKN070 22/14 Q1010 TEMPO 27015G25KT

Время: 15:35 (13:35 UTC)

Прогноз

Эта сводка был подготовлена 2 часа и 35 минут назад, в 11:00 UTC
Прогноз действительный с 14-го 12 UTC до 15-го 12 UTC
Ветер 12 Узел от западный
Видимость 10 км и более
Рассеянная облачность на высоте 3500 фута
временами
С 14-го 12 UTC до 14-го 16 UTC
Ветер 15 Узел от западный с порывами до 25 Узел
изменения
С 14-го 17 UTC до 14-го 19 UTC
Ветер 6 Узел от западный

TAF: EDDT 141100Z 1412/1512 27012KT 9999 BKN035 TEMPO 1412/1416 27015G25KT BECMG 1417/1419 27006KT

Метеонаблюдения и прогнозы для более 4000 аэропортов (сводки METAR и TAF).

Имеющиеся станции представлены на карте желтыми и красными точками.

Чтобы увидеть название станции, наведите на нее мышь.

Затем щелкните, чтобы увидеть метеонаблюдения и метеопрогнозы.

Управление картой: чтобы увеличить масштаб, щелкните зеленые кнопки с черным крестиком; чтобы уменьшить масштаб, щелкните зеленую кнопку с тире; для просмотра соседних карт щелкайте зеленые стрелки.


METAR-TAF: